Time;durP1;ratioP1;P1;durP2;ratioP2;P2;SDS_P1;SDS_P2;PMS_P1;PMS_P2;Temp;Humidity;BMP_temperature;BMP_pressure;BME280_temperature;BME280_humidity;BME280_pressure;Samples;Min_cycle;Max_cycle;Signal;HPM_P1;HPM_P2
2021/04/16 00:01:00;;;;;;;2.70;2.60;;;;;;;-2.01;100.00;101510.78;5111236;28;20055;-77
2021/04/16 00:04:03;;;;;;;3.10;2.72;;;;;;;-2.02;100.00;101503.75;5111248;28;20054;-77
2021/04/16 00:07:07;;;;;;;1.95;1.95;;;;;;;-2.07;100.00;101496.63;5109982;28;20063;-77
2021/04/16 00:10:14;;;;;;;2.22;2.10;;;;;;;-2.09;100.00;101504.38;5111106;28;20063;-77
2021/04/16 00:13:20;;;;;;;2.45;2.25;;;;;;;-2.12;100.00;101498.81;5110853;28;20062;-77
2021/04/16 00:16:27;;;;;;;4.43;2.83;;;;;;;-2.15;100.00;101505.78;5111290;28;20059;-77
2021/04/16 00:19:31;;;;;;;2.28;2.25;;;;;;;-2.17;100.00;101502.59;5111405;28;20062;-77
2021/04/16 00:22:35;;;;;;;4.43;3.17;;;;;;;-2.20;100.00;101495.09;5111433;28;20062;-77
2021/04/16 00:25:38;;;;;;;2.75;2.65;;;;;;;-2.20;100.00;101497.84;5111328;28;20058;-77
2021/04/16 00:28:42;;;;;;;3.33;3.10;;;;;;;-2.23;100.00;101503.97;5110811;28;20113;-77
2021/04/16 00:31:51;;;;;;;2.53;2.35;;;;;;;-2.23;100.00;101503.97;5110874;28;20070;-77
2021/04/16 00:34:55;;;;;;;2.85;2.75;;;;;;;-2.28;100.00;101496.06;5111106;28;20059;-77
2021/04/16 00:37:59;;;;;;;6.22;3.97;;;;;;;-2.30;100.00;101492.91;5110988;28;20059;-77
2021/04/16 00:41:08;;;;;;;3.40;3.05;;;;;;;-2.31;100.00;101492.09;5110895;28;20090;-77
2021/04/16 00:44:11;;;;;;;2.38;2.28;;;;;;;-2.34;100.00;101481.09;5110639;28;20063;-78
2021/04/16 00:47:18;;;;;;;2.38;2.28;;;;;;;-2.40;100.00;101488.72;5098324;28;20051;-77
2021/04/16 00:50:27;;;;;;;26.20;2.97;;;;;;;-2.46;100.00;101484.66;5110284;28;20058;-77
2021/04/16 00:53:33;;;;;;;2.40;2.15;;;;;;;-2.48;100.00;101480.69;5110301;28;20055;-77
2021/04/16 00:56:37;;;;;;;1.88;1.83;;;;;;;-2.52;100.00;101482.53;5110272;28;20555;-77
2021/04/16 00:59:47;;;;;;;2.40;2.35;;;;;;;-2.53;100.00;101478.22;5110713;28;20097;-77
2021/04/16 01:02:50;;;;;;;1.60;1.60;;;;;;;-2.55;100.00;101469.59;5109888;28;20544;-77
2021/04/16 01:06:03;;;;;;;2.42;2.13;;;;;;;-2.56;100.00;101473.47;5109845;28;20059;-77
2021/04/16 01:09:08;;;;;;;3.55;2.90;;;;;;;-2.57;100.00;101472.66;5110157;28;20062;-77
2021/04/16 01:12:13;;;;;;;2.13;2.03;;;;;;;-2.60;100.00;101472.59;5110348;28;20054;-76
2021/04/16 01:15:33;;;;;;;3.05;2.60;;;;;;;-2.63;100.00;101468.59;5110361;28;20054;-77
2021/04/16 01:18:42;;;;;;;2.63;2.40;;;;;;;-2.64;100.00;101471.69;5111191;28;21784;-75
2021/04/16 01:22:00;;;;;;;3.20;2.90;;;;;;;-2.66;100.00;101471.22;5111261;28;20062;-77
2021/04/16 01:25:07;;;;;;;1.95;1.95;;;;;;;-2.68;100.00;101466.13;5109018;28;20059;-77
2021/04/16 01:28:10;;;;;;;1.83;1.83;;;;;;;-2.70;100.00;101467.59;5109538;28;20520;-77
2021/04/16 01:31:18;;;;;;;3.97;2.25;;;;;;;-2.72;100.00;101464.44;5109793;28;20070;-76
2021/04/16 01:34:27;;;;;;;2.00;2.00;;;;;;;-2.74;100.00;101462.06;5108733;28;20054;-76
2021/04/16 01:37:31;;;;;;;1.60;1.60;;;;;;;-2.75;100.00;101467.88;5110388;28;20508;-76
2021/04/16 01:40:35;;;;;;;3.00;1.77;;;;;;;-2.79;100.00;101459.56;5110483;28;20066;-77
2021/04/16 01:43:42;;;;;;;2.45;2.35;;;;;;;-2.80;100.00;101462.66;5110389;28;20062;-76
2021/04/16 01:47:03;;;;;;;5.30;2.45;;;;;;;-2.83;100.00;101457.88;5110010;28;20055;-76
2021/04/16 01:50:07;;;;;;;3.40;3.15;;;;;;;-2.88;100.00;101453.47;5110165;28;20066;-76
2021/04/16 01:53:10;;;;;;;7.88;2.67;;;;;;;-2.93;100.00;101458.38;5109948;28;20067;-76
2021/04/16 01:56:15;;;;;;;1.67;1.67;;;;;;;-2.95;100.00;101457.94;5109884;28;20059;-76
2021/04/16 01:59:23;;;;;;;2.45;2.20;;;;;;;-2.96;100.00;101464.50;5109434;28;20642;-76
2021/04/16 02:02:32;;;;;;;2.25;1.65;;;;;;;-2.99;100.00;101462.50;5109808;28;20054;-76
2021/04/16 02:05:36;;;;;;;1.95;1.95;;;;;;;-3.00;100.00;101458.16;5111614;28;20085;-76
2021/04/16 02:08:39;;;;;;;1.83;1.73;;;;;;;-3.02;100.00;101458.53;5114059;28;20063;-76
2021/04/16 02:11:43;;;;;;;3.53;3.03;;;;;;;-3.03;100.00;101470.53;5113656;28;20070;-77
2021/04/16 02:14:48;;;;;;;1.45;1.38;;;;;;;-3.04;100.00;101462.72;5113507;28;20063;-76
2021/04/16 02:17:52;;;;;;;1.63;1.63;;;;;;;-3.05;100.00;101466.59;5113409;28;20067;-76
2021/04/16 02:20:55;;;;;;;2.17;2.17;;;;;;;-3.07;100.00;101456.03;5113607;28;20063;-76
2021/04/16 02:23:59;;;;;;;4.68;3.42;;;;;;;-3.10;100.00;101460.22;5113458;28;20059;-77
2021/04/16 02:27:04;;;;;;;2.50;2.40;;;;;;;-3.12;100.00;101457.06;5113424;28;20051;-77
2021/04/16 02:30:11;;;;;;;2.78;2.65;;;;;;;-3.11;100.00;101458.66;5113602;28;20082;-77
2021/04/16 02:33:15;;;;;;;6.03;3.75;;;;;;;-3.12;100.00;101465.22;5112922;28;20509;-77
2021/04/16 02:36:18;;;;;;;4.55;2.97;;;;;;;-3.13;100.00;101466.38;5112677;28;20078;-77
2021/04/16 02:39:24;;;;;;;1.77;1.77;;;;;;;-3.17;100.00;101454.59;5113229;28;20066;-76
2021/04/16 02:42:27;;;;;;;2.72;2.50;;;;;;;-3.20;100.00;101466.16;5113364;28;20082;-75
2021/04/16 02:45:31;;;;;;;1.83;1.77;;;;;;;-3.26;100.00;101459.38;5113366;28;20063;-77
2021/04/16 02:48:37;;;;;;;2.25;2.25;;;;;;;-3.26;100.00;101455.84;5100451;28;20455;-74
2021/04/16 02:51:41;;;;;;;1.70;1.70;;;;;;;-3.26;100.00;101459.38;5113224;28;20062;-75
2021/04/16 02:54:56;;;;;;;8.90;3.92;;;;;;;-3.30;100.00;101461.19;5113002;28;20066;-75
2021/04/16 02:58:00;;;;;;;6.38;2.92;;;;;;;-3.32;100.00;101460.75;5112763;28;20081;-75
2021/04/16 03:01:04;;;;;;;2.15;2.10;;;;;;;-3.33;100.00;101461.88;5112933;28;20078;-77
2021/04/16 03:04:07;;;;;;;1.90;1.90;;;;;;;-3.39;100.00;101465.97;5112569;28;20407;-79
2021/04/16 03:07:11;;;;;;;2.53;2.42;;;;;;;-3.45;100.00;101459.19;5099924;28;20520;-79
2021/04/16 03:10:17;;;;;;;1.48;1.48;;;;;;;-3.48;100.00;101459.84;5100467;28;20063;-79
2021/04/16 03:13:20;;;;;;;2.55;2.45;;;;;;;-3.45;100.00;101456.44;5111703;28;20532;-79
2021/04/16 03:16:26;;;;;;;1.92;1.92;;;;;;;-3.46;100.00;101459.50;5112153;28;20054;-78
2021/04/16 03:19:29;;;;;;;1.67;1.67;;;;;;;-3.46;100.00;101460.28;5112597;28;20055;-80
2021/04/16 03:22:33;;;;;;;3.72;2.67;;;;;;;-3.47;100.00;101458.72;5112241;28;20421;-79
2021/04/16 03:25:36;;;;;;;1.95;1.95;;;;;;;-3.49;100.00;101461.00;5111695;28;20062;-79
2021/04/16 03:28:40;;;;;;;1.75;1.75;;;;;;;-3.49;100.00;101458.28;5111025;28;20067;-80
2021/04/16 03:31:45;;;;;;;2.33;2.22;;;;;;;-3.52;100.00;101463.59;5111675;28;20066;-80
2021/04/16 03:34:49;;;;;;;4.57;2.80;;;;;;;-3.56;100.00;101463.50;5111561;28;20054;-80
2021/04/16 03:37:52;;;;;;;2.95;2.85;;;;;;;-3.57;100.00;101461.88;5111309;28;20067;-80
2021/04/16 03:40:56;;;;;;;1.83;1.83;;;;;;;-3.59;100.00;101463.34;5111697;28;20405;-79
2021/04/16 03:44:00;;;;;;;3.10;2.90;;;;;;;-3.62;100.00;101464.88;5111846;28;20055;-79
2021/04/16 03:47:03;;;;;;;2.28;2.17;;;;;;;-3.63;100.00;101465.97;5112209;28;20425;-80
2021/04/16 03:50:07;;;;;;;2.35;2.33;;;;;;;-3.63;100.00;101463.25;5112193;27;20058;-79
2021/04/16 03:53:11;;;;;;;2.20;2.08;;;;;;;-3.64;100.00;101469.84;5099310;28;20078;-79
2021/04/16 03:56:15;;;;;;;3.30;2.42;;;;;;;-3.64;100.00;101472.56;5111997;28;20066;-79
2021/04/16 03:59:21;;;;;;;3.10;2.40;;;;;;;-3.69;100.00;101461.09;5098511;28;20054;-79
2021/04/16 04:02:24;;;;;;;2.05;2.05;;;;;;;-3.77;100.00;101462.03;5112140;28;20055;-78
2021/04/16 04:05:28;;;;;;;1.92;1.92;;;;;;;-3.78;100.00;101466.66;5112026;28;20063;-79
2021/04/16 04:08:33;;;;;;;2.00;1.90;;;;;;;-3.83;100.00;101464.16;5111456;28;20056;-79
2021/04/16 04:11:37;;;;;;;3.17;2.88;;;;;;;-3.82;100.00;101465.75;5099603;28;20445;-79
2021/04/16 04:14:41;;;;;;;7.43;2.30;;;;;;;-3.85;100.00;101467.22;5099251;28;20508;-79
2021/04/16 04:17:44;;;;;;;2.83;2.65;;;;;;;-3.84;100.00;101468.03;5111691;28;20062;-79
2021/04/16 04:20:47;;;;;;;2.83;2.70;;;;;;;-3.85;100.00;101460.97;5098913;28;20054;-79
2021/04/16 04:23:51;;;;;;;4.05;2.67;;;;;;;-3.85;100.00;101466.44;5111507;28;20059;-79
2021/04/16 04:26:55;;;;;;;1.85;1.85;;;;;;;-3.88;100.00;101465.16;5098890;28;20409;-79
2021/04/16 04:29:59;;;;;;;1.65;1.65;;;;;;;-3.89;100.00;101469.03;5110879;28;20055;-79
2021/04/16 04:33:04;;;;;;;2.65;2.55;;;;;;;-3.91;100.00;101462.34;5110339;28;20054;-79
2021/04/16 04:36:08;;;;;;;1.98;1.98;;;;;;;-3.94;100.00;101465.72;5111251;28;20413;-79
2021/04/16 04:39:12;;;;;;;4.55;2.13;;;;;;;-3.94;100.00;101473.88;5110949;28;20527;-79
2021/04/16 04:42:16;;;;;;;2.67;2.22;;;;;;;-4.00;100.00;101470.63;5111309;28;20092;-79
2021/04/16 04:45:20;;;;;;;1.88;1.77;;;;;;;-4.04;100.00;101458.03;5110402;28;20058;-79
2021/04/16 04:48:24;;;;;;;2.13;2.13;;;;;;;-4.05;100.00;101461.88;5110982;28;20425;-78
2021/04/16 04:51:27;;;;;;;1.30;1.30;;;;;;;-4.07;100.00;101459.47;5110783;28;20075;-79
2021/04/16 04:54:31;;;;;;;1.88;1.80;;;;;;;-4.05;100.00;101468.09;5111001;28;20058;-79
2021/04/16 04:57:35;;;;;;;2.60;2.50;;;;;;;-4.03;100.00;101463.13;5110993;27;20051;-79
2021/04/16 05:00:38;;;;;;;1.70;1.60;;;;;;;-3.99;100.00;101469.50;5110946;28;20070;-79
2021/04/16 05:03:42;;;;;;;1.60;1.60;;;;;;;-3.90;100.00;101475.59;5110978;28;20066;-79
2021/04/16 05:06:45;;;;;;;1.83;1.80;;;;;;;-3.80;100.00;101477.09;5110617;28;20066;-80
2021/04/16 05:09:49;;;;;;;2.30;2.30;;;;;;;-3.70;100.00;101473.91;5110029;28;20051;-81
2021/04/16 05:12:52;;;;;;;2.35;2.35;;;;;;;-3.62;100.00;101480.41;5110193;28;20052;-81
2021/04/16 05:15:55;;;;;;;2.38;2.17;;;;;;;-3.57;100.00;101486.38;5110270;28;20065;-81
2021/04/16 05:19:01;;;;;;;2.97;2.78;;;;;;;-3.53;100.00;101473.69;5110354;28;20536;-82
2021/04/16 05:22:05;;;;;;;2.00;2.00;;;;;;;-3.52;100.00;101472.56;5110137;28;20059;-83
2021/04/16 05:25:10;;;;;;;2.05;2.00;;;;;;;-3.50;100.00;101477.66;5110038;28;20070;-82
2021/04/16 05:28:14;;;;;;;2.03;2.03;;;;;;;-3.51;100.00;101470.63;5110601;28;20055;-82
2021/04/16 05:31:17;;;;;;;1.90;1.90;;;;;;;-3.59;100.00;101464.16;5109245;28;20055;-82
2021/04/16 05:34:21;;;;;;;2.67;2.47;;;;;;;-3.61;100.00;101466.44;5110326;28;20062;-82
2021/04/16 05:37:24;;;;;;;2.55;2.45;;;;;;;-3.62;100.00;101469.50;5110513;28;20063;-82
2021/04/16 05:40:28;;;;;;;1.70;1.70;;;;;;;-3.62;100.00;101473.03;5113150;28;20074;-81
2021/04/16 05:43:31;;;;;;;2.20;2.10;;;;;;;-3.62;100.00;101469.50;5114448;28;20050;-82
2021/04/16 05:46:37;;;;;;;9.73;3.15;;;;;;;-3.57;100.00;101466.56;5114423;28;20067;-82
2021/04/16 05:49:40;;;;;;;2.92;2.65;;;;;;;-3.55;100.00;101464.28;5114848;28;20062;-81
2021/04/16 05:52:44;;;;;;;1.30;1.30;;;;;;;-3.53;100.00;101468.25;5113524;28;20059;-82
2021/04/16 05:55:48;;;;;;;3.15;2.85;;;;;;;-3.49;100.00;101473.81;5113521;28;20062;-81
2021/04/16 05:58:52;;;;;;;1.65;1.65;;;;;;;-3.46;100.00;101473.13;5113881;28;20058;-80
2021/04/16 06:01:55;;;;;;;2.00;2.00;;;;;;;-3.41;100.00;101465.53;5114166;27;20059;-80
2021/04/16 06:04:59;;;;;;;4.97;2.30;;;;;;;-3.37;100.00;101468.34;5114316;28;20078;-80
2021/04/16 06:08:05;;;;;;;2.30;2.20;;;;;;;-3.31;100.00;101470.50;5113146;28;20088;-80
2021/04/16 06:11:08;;;;;;;2.00;2.00;;;;;;;-3.25;100.00;101474.56;5113870;28;20055;-80
2021/04/16 06:14:12;;;;;;;2.60;2.47;;;;;;;-3.20;100.00;101477.06;5101276;28;20539;-80
2021/04/16 06:17:17;;;;;;;2.65;2.55;;;;;;;-3.12;100.00;101478.09;5101327;28;20409;-80
2021/04/16 06:20:24;;;;;;;4.93;4.50;;;;;;;-3.09;100.00;101478.19;5112882;28;20063;-81
2021/04/16 06:23:27;;;;;;;17.38;4.93;;;;;;;-2.98;100.00;101483.13;5109702;28;20044;-82
2021/04/16 06:26:31;;;;;;;2.60;2.50;;;;;;;-2.93;100.00;101475.53;5110549;28;20051;-82
2021/04/16 06:29:35;;;;;;;4.80;4.18;;;;;;;-2.84;100.00;101480.84;5111219;28;20070;-81
2021/04/16 06:32:38;;;;;;;4.07;3.35;;;;;;;-2.76;100.00;101469.00;5111536;28;20059;-81
2021/04/16 06:35:48;;;;;;;4.53;4.03;;;;;;;-2.66;100.00;101473.94;5112089;28;20066;-81
2021/04/16 06:38:51;;;;;;;12.43;5.05;;;;;;;-2.59;100.00;101474.16;5094244;28;20066;-81
2021/04/16 06:41:54;;;;;;;8.13;5.55;;;;;;;-2.50;100.00;101469.34;5113501;28;20052;-80
2021/04/16 06:45:01;;;;;;;16.17;5.55;;;;;;;-2.45;100.00;101474.56;5100867;28;20508;-80
2021/04/16 06:48:08;;;;;;;2.80;2.70;;;;;;;-2.38;100.00;101469.28;5113309;28;20047;-81
2021/04/16 06:51:13;;;;;;;2.58;2.45;;;;;;;-2.27;100.00;101475.81;5111996;28;20074;-80
2021/04/16 06:54:22;;;;;;;3.22;3.03;;;;;;;-2.16;100.00;101471.44;5100371;28;20520;-81
2021/04/16 06:57:37;;;;;;;2.65;2.45;;;;;;;-2.10;100.00;101470.03;5099003;28;20059;-81
2021/04/16 07:01:08;;;;;;;18.08;3.10;;;;;;;-1.96;100.00;101478.59;5113142;28;20062;-80
2021/04/16 07:04:43;;;;;;;3.10;2.90;;;;;;;-1.87;100.00;101473.75;5100312;28;20063;-81
2021/04/16 07:07:49;;;;;;;2.65;2.55;;;;;;;-1.69;100.00;101474.19;5082400;28;20413;-82
2021/04/16 07:10:55;;;;;;;2.13;2.03;;;;;;;-1.54;100.00;101476.88;5100462;28;20413;-81
2021/04/16 07:14:01;;;;;;;5.68;2.65;;;;;;;-1.36;100.00;101487.44;5100162;28;20066;-81
2021/04/16 07:17:08;;;;;;;2.50;2.40;;;;;;;-1.21;100.00;101472.97;5112862;28;20063;-81
2021/04/16 07:20:14;;;;;;;2.00;2.00;;;;;;;-1.02;100.00;101486.69;5099871;28;20059;-82
2021/04/16 07:23:18;;;;;;;8.57;2.85;;;;;;;-0.89;100.00;101479.94;5112232;28;20050;-84
2021/04/16 07:26:39;;;;;;;1.90;1.90;;;;;;;-0.74;100.00;101476.34;5113007;28;20532;-86
2021/04/16 07:29:45;;;;;;;10.82;2.95;;;;;;;-0.60;100.00;101479.34;5099879;28;20408;-82
2021/04/16 07:32:50;;;;;;;11.90;3.15;;;;;;;-0.46;100.00;101479.66;5112383;28;20043;-81
2021/04/16 07:36:15;;;;;;;2.40;1.98;;;;;;;-0.30;100.00;101479.53;5112656;28;20051;-82
2021/04/16 07:39:34;;;;;;;2.83;2.72;;;;;;;-0.14;100.00;101482.97;5110022;28;20063;-85
2021/04/16 07:42:46;;;;;;;4.68;3.13;;;;;;;0.03;100.00;101473.50;5112907;28;20515;-81
2021/04/16 07:45:50;;;;;;;;;;;;;;;0.17;100.00;101479.22;5110635;28;20385;-82
2021/04/16 07:49:14;;;;;;;2.92;1.77;;;;;;;0.31;100.00;101482.19;5111611;28;19920;-83
2021/04/16 07:52:21;;;;;;;12.95;2.53;;;;;;;0.50;100.00;101482.09;5111177;28;20062;-82
2021/04/16 07:55:25;;;;;;;2.28;2.17;;;;;;;0.70;100.00;101480.84;5112189;28;20059;-82
2021/04/16 07:58:29;;;;;;;3.80;2.35;;;;;;;0.94;100.00;101479.63;5111950;28;20420;-82
2021/04/16 08:01:35;;;;;;;2.15;1.95;;;;;;;1.16;100.00;101479.56;5099051;28;20508;-79
2021/04/16 08:04:39;;;;;;;1.90;1.85;;;;;;;1.39;100.00;101472.00;5110832;28;20064;-81
2021/04/16 08:07:42;;;;;;;1.63;1.52;;;;;;;1.61;100.00;101467.56;5110562;28;20070;-80
2021/04/16 08:10:49;;;;;;;1.45;1.45;;;;;;;1.91;100.00;101475.69;5111538;28;20078;-82
2021/04/16 08:14:00;;;;;;;13.98;2.63;;;;;;;2.07;100.00;101468.03;5098821;28;20066;-83
2021/04/16 08:17:14;;;;;;;1.40;1.40;;;;;;;2.42;100.00;101470.28;5096742;28;20456;-84
2021/04/16 08:20:26;;;;;;;13.10;3.17;;;;;;;2.92;100.00;101470.22;5107977;28;20054;-84
2021/04/16 08:23:51;;;;;;;6.40;2.00;;;;;;;3.11;100.00;101471.94;5097328;28;20528;-82
2021/04/16 08:27:13;;;;;;;2.25;1.50;;;;;;;3.41;100.00;101469.72;5112137;28;20058;-84
2021/04/16 08:30:29;;;;;;;1.33;1.33;;;;;;;3.70;100.00;101476.88;5112942;28;20075;-82
2021/04/16 08:33:42;;;;;;;1.55;1.50;;;;;;;3.89;100.00;101477.72;5099303;28;20058;-82
2021/04/16 08:36:47;;;;;;;1.58;1.40;;;;;;;3.99;100.00;101471.44;5099726;28;20067;-82
2021/04/16 08:39:51;;;;;;;1.88;1.73;;;;;;;4.17;100.00;101472.25;5110211;28;20063;-82
2021/04/16 08:42:57;;;;;;;1.92;1.77;;;;;;;4.44;100.00;101462.44;5098347;28;20050;-84
2021/04/16 08:46:13;;;;;;;3.60;1.80;;;;;;;4.68;100.00;101469.88;5090556;28;20066;-80
2021/04/16 08:49:29;;;;;;;1.02;0.98;;;;;;;4.77;100.00;101463.94;5077411;28;20063;-84
2021/04/16 08:52:44;;;;;;;1.42;1.42;;;;;;;4.97;100.00;101467.84;5078471;28;20055;-86
2021/04/16 08:55:52;;;;;;;1.20;1.20;;;;;;;5.29;100.00;101455.53;5079636;28;20063;-85
2021/04/16 08:58:55;;;;;;;2.40;1.30;;;;;;;5.50;100.00;101460.16;5078822;28;20055;-85
2021/04/16 09:02:14;;;;;;;0.90;0.88;;;;;;;5.59;100.00;101457.75;5091111;28;20414;-86
2021/04/16 09:05:23;;;;;;;0.82;0.82;;;;;;;5.70;100.00;101461.25;5090452;28;20051;-85
2021/04/16 09:08:41;;;;;;;1.02;1.02;;;;;;;5.91;100.00;101461.16;5091686;28;20059;-85
2021/04/16 09:11:45;;;;;;;1.60;1.10;;;;;;;6.13;100.00;101463.78;5077650;28;20059;-85
2021/04/16 09:14:52;;;;;;;4.03;1.70;;;;;;;6.34;100.00;101469.16;5078576;28;20063;-85
2021/04/16 09:17:58;;;;;;;1.02;1.00;;;;;;;6.41;100.00;101463.56;5090970;28;20059;-85
2021/04/16 09:21:01;;;;;;;3.60;2.03;;;;;;;6.49;100.00;101465.88;5078520;28;20078;-84
2021/04/16 09:24:10;;;;;;;10.25;2.78;;;;;;;6.64;100.00;101461.00;5090887;28;20104;-85
2021/04/16 09:27:16;;;;;;;2.53;0.80;;;;;;;6.81;100.00;101458.06;5078233;28;20059;-84
2021/04/16 09:30:30;;;;;;;1.35;1.17;;;;;;;6.99;100.00;101457.88;5078144;28;20051;-82
2021/04/16 09:33:35;;;;;;;3.40;1.30;;;;;;;7.10;100.00;101468.84;5076868;28;20528;-86
2021/04/16 09:36:39;;;;;;;0.80;0.80;;;;;;;7.31;100.00;101460.28;5090389;28;20145;-85
2021/04/16 09:39:59;;;;;;;0.90;0.90;;;;;;;7.52;100.00;101454.47;5089878;28;20059;-87
2021/04/16 09:43:09;;;;;;;0.93;0.80;;;;;;;7.73;100.00;101453.41;5089949;28;20064;-86
2021/04/16 09:46:45;;;;;;;0.95;0.70;;;;;;;7.94;100.00;101453.09;5090084;28;20059;-83
2021/04/16 09:49:58;;;;;;;3.50;0.90;;;;;;;8.10;100.00;101453.25;5089822;28;20521;-84
2021/04/16 09:53:07;;;;;;;2.05;0.63;;;;;;;8.19;100.00;101459.03;5089221;28;20066;-83
2021/04/16 09:56:15;;;;;;;0.52;0.40;;;;;;;8.29;100.00;101453.34;5089133;28;20055;-83
2021/04/16 09:59:38;;;;;;;0.40;0.40;;;;;;;8.39;100.00;101457.16;5089500;28;20059;-81
2021/04/16 10:02:42;;;;;;;3.60;1.15;;;;;;;8.50;100.00;101445.88;5089094;28;20557;-80
2021/04/16 10:05:46;;;;;;;1.10;0.47;;;;;;;8.80;100.00;101445.75;5088783;28;20063;-80
2021/04/16 10:09:17;;;;;;;4.78;0.80;;;;;;;9.06;100.00;101444.84;5090179;28;20433;-82
2021/04/16 10:12:28;;;;;;;;;;;;;;;9.44;100.00;101442.50;5092031;28;20059;-81
2021/04/16 10:15:37;;;;;;;0.52;0.52;;;;;;;9.55;100.00;101443.06;5092100;28;19920;-82
2021/04/16 10:18:41;;;;;;;1.77;1.02;;;;;;;9.63;100.00;101430.56;5090218;28;20501;-84
2021/04/16 10:21:44;;;;;;;2.35;0.85;;;;;;;9.75;100.00;101430.69;5078843;28;20055;-80
2021/04/16 12:38:48;;;;;;;1.70;0.60;;;;;;;10.53;100.00;101334.91;5109052;28;20425;-79
2021/04/16 12:41:54;;;;;;;1.65;0.70;;;;;;;10.86;100.00;101330.03;5110127;28;20063;-79
2021/04/16 12:44:58;;;;;;;6.72;0.90;;;;;;;11.28;100.00;101328.00;5109609;28;20481;-79
2021/04/16 12:48:02;;;;;;;0.93;0.57;;;;;;;11.64;100.00;101322.88;5109974;28;20694;-79
2021/04/16 12:51:06;;;;;;;3.65;1.25;;;;;;;11.95;99.02;101315.47;5109778;28;20066;-79
2021/04/16 12:54:09;;;;;;;5.32;1.35;;;;;;;11.94;96.25;101311.13;5109787;28;20063;-80
2021/04/16 12:57:18;;;;;;;5.57;0.60;;;;;;;12.12;100.00;101308.53;5109706;28;20059;-79
2021/04/16 13:00:24;;;;;;;2.67;0.75;;;;;;;12.63;96.65;101313.91;5109588;28;20051;-80
2021/04/16 13:03:35;;;;;;;1.58;0.88;;;;;;;12.73;90.99;101304.38;5109011;28;20397;-79
2021/04/16 13:06:42;;;;;;;1.45;0.82;;;;;;;12.88;88.98;101303.41;5109548;28;20082;-81
2021/04/16 13:09:45;;;;;;;4.70;1.50;;;;;;;12.69;86.99;101295.34;5096851;28;20079;-80
2021/04/16 13:12:49;;;;;;;0.80;0.50;;;;;;;12.37;85.82;101306.88;5096758;28;20051;-80
2021/04/16 13:15:55;;;;;;;0.63;0.45;;;;;;;11.92;88.31;101305.22;5108797;28;20062;-80
2021/04/16 13:19:06;;;;;;;2.70;0.82;;;;;;;11.59;90.46;101308.69;5109705;28;20051;-80
2021/04/16 13:22:18;;;;;;;5.53;1.13;;;;;;;11.32;90.31;101298.78;5109402;28;20055;-83
2021/04/16 13:25:28;;;;;;;2.60;1.10;;;;;;;11.22;88.86;101301.88;5108298;28;20078;-81
2021/04/16 13:28:31;;;;;;;0.95;0.75;;;;;;;11.56;91.83;101293.63;5109307;28;20058;-80
2021/04/16 13:31:36;;;;;;;0.52;0.35;;;;;;;11.88;93.63;101298.19;5109652;28;20074;-80
2021/04/16 13:34:41;;;;;;;6.68;1.25;;;;;;;11.89;85.93;101300.53;5096541;28;20432;-78
2021/04/16 13:37:45;;;;;;;0.82;0.80;;;;;;;11.81;87.80;101299.22;5108851;28;20067;-80
2021/04/16 13:40:50;;;;;;;1.52;0.43;;;;;;;11.63;84.87;101290.59;5108745;28;20059;-80
2021/04/16 13:43:54;;;;;;;1.20;0.95;;;;;;;11.56;90.36;101290.06;5096661;28;20050;-81
2021/04/16 13:47:03;;;;;;;1.20;0.70;;;;;;;11.56;88.21;101299.22;5109304;28;20063;-80
2021/04/16 13:50:09;;;;;;;1.38;0.55;;;;;;;11.59;90.98;101289.94;5107921;28;20540;-79
2021/04/16 13:53:14;;;;;;;0.70;0.47;;;;;;;11.69;91.12;101288.06;5109938;28;20417;-80
2021/04/16 13:56:17;;;;;;;0.63;0.32;;;;;;;11.69;88.94;101283.28;5096386;28;20078;-80
2021/04/16 13:59:21;;;;;;;3.25;0.50;;;;;;;11.54;86.36;101287.72;5108164;28;20050;-80
2021/04/16 14:02:31;;;;;;;0.40;0.40;;;;;;;11.48;87.66;101281.13;5100479;28;20074;-81
2021/04/16 14:05:35;;;;;;;1.52;1.33;;;;;;;11.37;85.64;101286.25;5100748;28;20062;-81
2021/04/16 14:08:44;;;;;;;1.73;0.50;;;;;;;11.29;89.89;101276.56;5113076;28;20508;-82
2021/04/16 14:11:47;;;;;;;2.92;0.40;;;;;;;11.07;89.15;101279.22;5099960;28;20062;-82
2021/04/16 14:14:51;;;;;;;1.10;0.75;;;;;;;10.83;93.19;101275.16;5113093;28;20070;-81
2021/04/16 14:17:58;;;;;;;1.90;0.52;;;;;;;10.68;95.51;101267.69;5112937;28;20054;-81
2021/04/16 14:21:04;;;;;;;0.52;0.45;;;;;;;10.54;95.62;101261.28;5099510;28;20058;-81
2021/04/16 14:24:10;;;;;;;1.15;0.95;;;;;;;10.52;96.64;101255.38;5100002;28;20405;-80
2021/04/16 14:27:14;;;;;;;0.93;0.30;;;;;;;10.79;97.66;101260.56;5112659;28;20532;-83
2021/04/16 14:30:22;;;;;;;0.75;0.70;;;;;;;11.26;95.77;101255.16;5112375;28;20409;-81
2021/04/16 14:33:29;;;;;;;2.35;0.98;;;;;;;11.85;91.24;101260.78;5111074;28;20058;-81
2021/04/16 14:36:33;;;;;;;2.40;0.90;;;;;;;12.00;91.86;101250.69;5111839;28;20062;-80
2021/04/16 14:39:37;;;;;;;1.58;0.90;;;;;;;12.01;91.87;101246.69;5112686;28;20063;-80
2021/04/16 14:42:41;;;;;;;1.27;0.65;;;;;;;11.92;91.72;101254.97;5099355;28;20066;-81
2021/04/16 14:45:49;;;;;;;1.85;0.77;;;;;;;11.74;90.48;101245.63;5091673;28;20064;-80
2021/04/16 14:48:53;;;;;;;2.35;1.42;;;;;;;11.54;84.92;101247.88;5092012;28;20417;-80
2021/04/16 14:52:00;;;;;;;1.63;0.98;;;;;;;11.41;86.19;101239.53;5091756;28;20547;-80
2021/04/16 14:55:06;;;;;;;3.72;0.82;;;;;;;11.19;86.43;101233.06;5091559;28;20067;-80
2021/04/16 14:58:12;;;;;;;1.50;0.82;;;;;;;11.04;90.18;101237.53;5078816;28;20055;-80
2021/04/16 15:01:18;;;;;;;7.47;1.65;;;;;;;10.91;87.87;101231.16;5091145;28;20055;-80
2021/04/16 15:04:22;;;;;;;4.72;0.77;;;;;;;10.81;88.43;101229.44;5090502;28;20062;-81
2021/04/16 15:07:31;;;;;;;2.22;0.75;;;;;;;10.80;91.15;101225.91;5091630;28;20066;-80
2021/04/16 15:10:40;;;;;;;2.33;0.90;;;;;;;10.89;88.69;101211.31;5091525;28;20067;-80
2021/04/16 15:13:43;;;;;;;0.95;0.75;;;;;;;10.89;89.80;101200.94;5090609;28;20409;-80
2021/04/16 15:16:51;;;;;;;1.38;1.02;;;;;;;11.03;87.80;101205.28;5091489;28;20063;-79
2021/04/16 15:19:57;;;;;;;1.38;1.00;;;;;;;11.47;93.02;101211.84;5089539;28;20416;-81
2021/04/16 15:23:07;;;;;;;4.85;1.02;;;;;;;11.65;86.52;101212.78;5109876;28;20067;-80
2021/04/16 15:26:11;;;;;;;1.95;0.68;;;;;;;11.60;89.72;101213.38;5111317;28;20074;-82
2021/04/16 15:29:27;;;;;;;1.50;0.82;;;;;;;11.60;92.48;101205.00;5110831;28;20058;-81
2021/04/16 15:32:36;;;;;;;2.05;0.50;;;;;;;11.48;88.53;101214.16;5096590;28;20058;-81
2021/04/16 15:46:25;;;;;;;1.05;0.63;;;;;;;11.10;89.51;101205.84;5090614;28;20059;-82
2021/04/16 15:49:30;;;;;;;4.93;0.93;;;;;;;11.08;88.27;101202.72;5090021;28;20177;-81
2021/04/16 15:52:34;;;;;;;5.38;0.63;;;;;;;11.09;91.02;101203.50;5090405;28;20059;-81
2021/04/16 15:55:37;;;;;;;1.05;0.50;;;;;;;11.10;89.26;101210.63;5090720;28;20101;-82
2021/04/16 15:58:41;;;;;;;1.48;0.88;;;;;;;11.06;88.35;101207.19;5090199;28;20054;-82
2021/04/16 16:01:45;;;;;;;1.67;0.70;;;;;;;10.91;89.15;101206.84;5090055;28;20623;-81
2021/04/16 16:04:49;;;;;;;2.22;0.75;;;;;;;10.71;87.52;101202.69;5090556;28;20063;-81
2021/04/16 16:07:53;;;;;;;1.55;0.60;;;;;;;10.58;87.48;101205.47;5090712;28;20055;-80
2021/04/16 16:10:57;;;;;;;1.25;1.08;;;;;;;10.61;92.02;101208.13;5090742;28;20051;-80
2021/04/16 16:14:02;;;;;;;1.92;0.50;;;;;;;10.71;89.94;101205.47;5090877;28;20418;-80
2021/04/16 16:17:08;;;;;;;2.38;0.95;;;;;;;10.88;89.41;101204.94;5090859;28;20445;-80
2021/04/16 16:20:14;;;;;;;2.75;2.03;;;;;;;11.07;90.03;101203.94;5078523;28;20405;-81
2021/04/16 16:23:21;;;;;;;0.40;0.40;;;;;;;11.27;84.75;101198.13;5089666;28;20055;-82
2021/04/16 16:26:30;;;;;;;11.05;1.58;;;;;;;11.41;86.83;101198.44;5091136;28;20062;-81
2021/04/16 16:29:37;;;;;;;8.13;2.20;;;;;;;11.60;84.91;101193.84;5094606;28;20067;-84
2021/04/16 16:32:41;;;;;;;9.00;1.98;;;;;;;11.56;82.32;101195.19;5090199;28;20055;-81
2021/04/16 16:35:48;;;;;;;4.57;1.35;;;;;;;11.51;84.00;101201.34;5089856;28;20529;-81
2021/04/16 16:38:51;;;;;;;1.70;0.95;;;;;;;11.48;83.97;101191.84;5089493;28;20055;-82
2021/04/16 16:41:55;;;;;;;4.38;1.17;;;;;;;11.43;86.93;101195.22;5076968;28;20059;-80
2021/04/16 16:44:58;;;;;;;3.72;1.50;;;;;;;11.30;85.79;101194.47;5091655;28;20055;-79
2021/04/16 16:48:02;;;;;;;1.27;0.80;;;;;;;11.23;85.88;101197.47;5110328;28;20066;-81